Terminal Aerodrome Forecast
Issued by NWS Charleston, WV

Current Version | Previous Version | Graphics & Text | Print | Product List | Glossary On
Versions: 1 2 3 4 5 6 7 8 9 10 11 12 13 14 15 16 17 18 19 20 21 22 23 24 25 26 27 28 29 30 31
000
FTUS41 KRLX 251458 AAA
TAFEKN
TAF AMD
KEKN 251458Z 2515/2612 26008KT P6SM BKN015
     FM251700 27006KT P6SM SCT035
     FM260600 00000KT 5SM BR SCT070
     FM260900 00000KT 1SM BR BKN001=

USA.gov is the U.S. government's official web portal to all federal, state and local government web resources and services.